sensor_id;sensor_type;location;lat;lon;timestamp;P1;durP1;ratioP1;P2;durP2;ratioP2
10827;SDS011;5467;59.334;13.512;2022-09-17T00:00:20;0.50;;;0.50;;
10827;SDS011;5467;59.334;13.512;2022-09-17T00:02:48;0.40;;;0.40;;
10827;SDS011;5467;59.334;13.512;2022-09-17T00:05:20;0.40;;;0.40;;
10827;SDS011;5467;59.334;13.512;2022-09-17T00:07:48;0.53;;;0.53;;
10827;SDS011;5467;59.334;13.512;2022-09-17T00:10:15;0.40;;;0.40;;
10827;SDS011;5467;59.334;13.512;2022-09-17T00:12:42;0.40;;;0.40;;
10827;SDS011;5467;59.334;13.512;2022-09-17T00:15:10;0.43;;;0.43;;
10827;SDS011;5467;59.334;13.512;2022-09-17T00:17:38;0.40;;;0.40;;
10827;SDS011;5467;59.334;13.512;2022-09-17T00:20:05;0.40;;;0.40;;
10827;SDS011;5467;59.334;13.512;2022-09-17T00:22:34;0.50;;;0.50;;
10827;SDS011;5467;59.334;13.512;2022-09-17T00:25:02;0.50;;;0.50;;
10827;SDS011;5467;59.334;13.512;2022-09-17T00:27:29;0.40;;;0.40;;
10827;SDS011;5467;59.334;13.512;2022-09-17T00:29:56;0.50;;;0.50;;
10827;SDS011;5467;59.334;13.512;2022-09-17T00:32:25;0.50;;;0.50;;
10827;SDS011;5467;59.334;13.512;2022-09-17T00:34:52;0.50;;;0.50;;
10827;SDS011;5467;59.334;13.512;2022-09-17T00:37:19;0.40;;;0.40;;
10827;SDS011;5467;59.334;13.512;2022-09-17T00:39:47;0.50;;;0.50;;
10827;SDS011;5467;59.334;13.512;2022-09-17T00:42:14;0.50;;;0.50;;
10827;SDS011;5467;59.334;13.512;2022-09-17T00:44:44;0.50;;;0.50;;
10827;SDS011;5467;59.334;13.512;2022-09-17T00:47:18;0.60;;;0.60;;
10827;SDS011;5467;59.334;13.512;2022-09-17T00:49:51;0.40;;;0.40;;
10827;SDS011;5467;59.334;13.512;2022-09-17T00:52:23;0.30;;;0.30;;
10827;SDS011;5467;59.334;13.512;2022-09-17T00:54:54;0.30;;;0.30;;
10827;SDS011;5467;59.334;13.512;2022-09-17T00:57:25;0.40;;;0.40;;
10827;SDS011;5467;59.334;13.512;2022-09-17T00:59:53;0.30;;;0.30;;
10827;SDS011;5467;59.334;13.512;2022-09-17T01:02:20;0.30;;;0.30;;
10827;SDS011;5467;59.334;13.512;2022-09-17T01:04:48;0.40;;;0.40;;
10827;SDS011;5467;59.334;13.512;2022-09-17T01:07:20;0.40;;;0.40;;
10827;SDS011;5467;59.334;13.512;2022-09-17T01:10:14;0.40;;;0.40;;
10827;SDS011;5467;59.334;13.512;2022-09-17T01:12:55;0.40;;;0.40;;
10827;SDS011;5467;59.334;13.512;2022-09-17T01:15:33;0.40;;;0.40;;
10827;SDS011;5467;59.334;13.512;2022-09-17T01:18:20;0.40;;;0.40;;
10827;SDS011;5467;59.334;13.512;2022-09-17T01:24:08;0.40;;;0.40;;
10827;SDS011;5467;59.334;13.512;2022-09-17T01:27:21;0.40;;;0.40;;
10827;SDS011;5467;59.334;13.512;2022-09-17T01:30:36;0.50;;;0.50;;
10827;SDS011;5467;59.334;13.512;2022-09-17T01:33:21;0.40;;;0.40;;
10827;SDS011;5467;59.334;13.512;2022-09-17T01:35:57;0.30;;;0.30;;
10827;SDS011;5467;59.334;13.512;2022-09-17T01:38:31;0.30;;;0.30;;
10827;SDS011;5467;59.334;13.512;2022-09-17T01:41:05;0.30;;;0.30;;
10827;SDS011;5467;59.334;13.512;2022-09-17T01:43:37;0.30;;;0.30;;
10827;SDS011;5467;59.334;13.512;2022-09-17T01:46:14;0.40;;;0.40;;
10827;SDS011;5467;59.334;13.512;2022-09-17T01:48:46;0.20;;;0.20;;
10827;SDS011;5467;59.334;13.512;2022-09-17T01:51:16;0.30;;;0.30;;
10827;SDS011;5467;59.334;13.512;2022-09-17T01:53:47;0.37;;;0.37;;
10827;SDS011;5467;59.334;13.512;2022-09-17T01:56:20;0.40;;;0.40;;
10827;SDS011;5467;59.334;13.512;2022-09-17T01:58:51;0.33;;;0.33;;
10827;SDS011;5467;59.334;13.512;2022-09-17T02:01:24;0.37;;;0.37;;
10827;SDS011;5467;59.334;13.512;2022-09-17T02:03:56;0.40;;;0.40;;
10827;SDS011;5467;59.334;13.512;2022-09-17T02:06:28;0.30;;;0.30;;
10827;SDS011;5467;59.334;13.512;2022-09-17T02:09:00;0.40;;;0.40;;
10827;SDS011;5467;59.334;13.512;2022-09-17T02:11:32;0.40;;;0.40;;
10827;SDS011;5467;59.334;13.512;2022-09-17T02:14:03;0.30;;;0.30;;
10827;SDS011;5467;59.334;13.512;2022-09-17T02:16:35;0.40;;;0.40;;
10827;SDS011;5467;59.334;13.512;2022-09-17T02:19:05;0.40;;;0.40;;
10827;SDS011;5467;59.334;13.512;2022-09-17T02:21:37;0.30;;;0.30;;
10827;SDS011;5467;59.334;13.512;2022-09-17T02:24:11;0.40;;;0.40;;
10827;SDS011;5467;59.334;13.512;2022-09-17T02:26:44;0.40;;;0.40;;
10827;SDS011;5467;59.334;13.512;2022-09-17T02:29:16;0.30;;;0.30;;
10827;SDS011;5467;59.334;13.512;2022-09-17T02:31:50;0.40;;;0.40;;
10827;SDS011;5467;59.334;13.512;2022-09-17T02:34:17;0.30;;;0.30;;
10827;SDS011;5467;59.334;13.512;2022-09-17T02:36:45;0.40;;;0.40;;
10827;SDS011;5467;59.334;13.512;2022-09-17T02:39:12;0.30;;;0.30;;
10827;SDS011;5467;59.334;13.512;2022-09-17T02:41:42;0.30;;;0.30;;
10827;SDS011;5467;59.334;13.512;2022-09-17T02:44:17;0.40;;;0.40;;
10827;SDS011;5467;59.334;13.512;2022-09-17T02:47:03;0.40;;;0.40;;
10827;SDS011;5467;59.334;13.512;2022-09-17T02:49:56;0.20;;;0.20;;
10827;SDS011;5467;59.334;13.512;2022-09-17T02:52:35;0.30;;;0.30;;
10827;SDS011;5467;59.334;13.512;2022-09-17T02:55:15;0.40;;;0.40;;
10827;SDS011;5467;59.334;13.512;2022-09-17T02:57:45;0.30;;;0.30;;
10827;SDS011;5467;59.334;13.512;2022-09-17T03:00:20;0.30;;;0.30;;
10827;SDS011;5467;59.334;13.512;2022-09-17T03:02:52;0.30;;;0.30;;
10827;SDS011;5467;59.334;13.512;2022-09-17T03:05:24;0.40;;;0.40;;
10827;SDS011;5467;59.334;13.512;2022-09-17T03:07:53;0.40;;;0.40;;
10827;SDS011;5467;59.334;13.512;2022-09-17T03:10:21;0.30;;;0.30;;
10827;SDS011;5467;59.334;13.512;2022-09-17T03:12:48;0.30;;;0.30;;
10827;SDS011;5467;59.334;13.512;2022-09-17T03:15:15;0.40;;;0.40;;
10827;SDS011;5467;59.334;13.512;2022-09-17T03:17:42;0.37;;;0.37;;
10827;SDS011;5467;59.334;13.512;2022-09-17T03:20:10;0.40;;;0.40;;
10827;SDS011;5467;59.334;13.512;2022-09-17T03:22:40;0.40;;;0.40;;
10827;SDS011;5467;59.334;13.512;2022-09-17T03:25:07;0.40;;;0.40;;
10827;SDS011;5467;59.334;13.512;2022-09-17T03:27:34;0.40;;;0.40;;
10827;SDS011;5467;59.334;13.512;2022-09-17T03:30:01;0.30;;;0.30;;
10827;SDS011;5467;59.334;13.512;2022-09-17T03:32:28;0.30;;;0.30;;
10827;SDS011;5467;59.334;13.512;2022-09-17T03:34:55;0.33;;;0.33;;
10827;SDS011;5467;59.334;13.512;2022-09-17T03:37:24;0.30;;;0.30;;
10827;SDS011;5467;59.334;13.512;2022-09-17T03:39:51;0.50;;;0.50;;
10827;SDS011;5467;59.334;13.512;2022-09-17T03:42:18;0.30;;;0.30;;
10827;SDS011;5467;59.334;13.512;2022-09-17T03:44:45;0.50;;;0.50;;
10827;SDS011;5467;59.334;13.512;2022-09-17T03:47:12;0.40;;;0.40;;
10827;SDS011;5467;59.334;13.512;2022-09-17T03:49:40;0.50;;;0.50;;
10827;SDS011;5467;59.334;13.512;2022-09-17T03:52:07;0.30;;;0.30;;
10827;SDS011;5467;59.334;13.512;2022-09-17T03:54:36;0.30;;;0.30;;
10827;SDS011;5467;59.334;13.512;2022-09-17T03:57:03;0.40;;;0.40;;
10827;SDS011;5467;59.334;13.512;2022-09-17T03:59:30;0.30;;;0.30;;
10827;SDS011;5467;59.334;13.512;2022-09-17T04:01:57;0.30;;;0.30;;
10827;SDS011;5467;59.334;13.512;2022-09-17T04:04:24;0.30;;;0.30;;
10827;SDS011;5467;59.334;13.512;2022-09-17T04:06:51;0.40;;;0.40;;
10827;SDS011;5467;59.334;13.512;2022-09-17T04:09:18;0.40;;;0.40;;
10827;SDS011;5467;59.334;13.512;2022-09-17T04:11:46;0.40;;;0.40;;
10827;SDS011;5467;59.334;13.512;2022-09-17T04:14:15;0.30;;;0.30;;
10827;SDS011;5467;59.334;13.512;2022-09-17T04:16:45;0.33;;;0.33;;
10827;SDS011;5467;59.334;13.512;2022-09-17T04:19:12;0.30;;;0.30;;
10827;SDS011;5467;59.334;13.512;2022-09-17T04:21:39;0.33;;;0.33;;
10827;SDS011;5467;59.334;13.512;2022-09-17T04:24:06;0.40;;;0.40;;
10827;SDS011;5467;59.334;13.512;2022-09-17T04:26:33;0.40;;;0.40;;
10827;SDS011;5467;59.334;13.512;2022-09-17T04:29:01;0.30;;;0.30;;
10827;SDS011;5467;59.334;13.512;2022-09-17T04:31:28;0.30;;;0.30;;
10827;SDS011;5467;59.334;13.512;2022-09-17T04:33:55;0.40;;;0.40;;
10827;SDS011;5467;59.334;13.512;2022-09-17T04:36:22;0.40;;;0.40;;
10827;SDS011;5467;59.334;13.512;2022-09-17T04:38:49;0.40;;;0.40;;
10827;SDS011;5467;59.334;13.512;2022-09-17T04:41:16;0.30;;;0.30;;
10827;SDS011;5467;59.334;13.512;2022-09-17T04:43:43;0.40;;;0.40;;
10827;SDS011;5467;59.334;13.512;2022-09-17T04:46:12;0.40;;;0.40;;
10827;SDS011;5467;59.334;13.512;2022-09-17T04:48:40;0.30;;;0.30;;
10827;SDS011;5467;59.334;13.512;2022-09-17T04:51:07;0.40;;;0.40;;
10827;SDS011;5467;59.334;13.512;2022-09-17T04:53:34;0.40;;;0.40;;
10827;SDS011;5467;59.334;13.512;2022-09-17T04:56:02;0.40;;;0.40;;
10827;SDS011;5467;59.334;13.512;2022-09-17T04:58:29;0.40;;;0.40;;
10827;SDS011;5467;59.334;13.512;2022-09-17T05:00:57;0.40;;;0.40;;
10827;SDS011;5467;59.334;13.512;2022-09-17T05:03:25;0.40;;;0.40;;
10827;SDS011;5467;59.334;13.512;2022-09-17T05:05:52;0.30;;;0.30;;
10827;SDS011;5467;59.334;13.512;2022-09-17T05:08:19;0.33;;;0.33;;
10827;SDS011;5467;59.334;13.512;2022-09-17T05:10:48;0.30;;;0.30;;
10827;SDS011;5467;59.334;13.512;2022-09-17T05:13:15;0.30;;;0.30;;
10827;SDS011;5467;59.334;13.512;2022-09-17T05:15:43;0.40;;;0.40;;
10827;SDS011;5467;59.334;13.512;2022-09-17T05:18:10;0.40;;;0.40;;
10827;SDS011;5467;59.334;13.512;2022-09-17T05:20:38;0.40;;;0.40;;
10827;SDS011;5467;59.334;13.512;2022-09-17T05:23:05;0.50;;;0.50;;
10827;SDS011;5467;59.334;13.512;2022-09-17T05:25:32;0.33;;;0.33;;
10827;SDS011;5467;59.334;13.512;2022-09-17T05:27:59;0.40;;;0.40;;
10827;SDS011;5467;59.334;13.512;2022-09-17T05:30:27;0.40;;;0.40;;
10827;SDS011;5467;59.334;13.512;2022-09-17T05:32:57;0.30;;;0.30;;
10827;SDS011;5467;59.334;13.512;2022-09-17T05:35:25;0.30;;;0.30;;
10827;SDS011;5467;59.334;13.512;2022-09-17T05:37:56;0.30;;;0.30;;
10827;SDS011;5467;59.334;13.512;2022-09-17T05:40:24;0.50;;;0.50;;
10827;SDS011;5467;59.334;13.512;2022-09-17T05:42:56;0.40;;;0.40;;
10827;SDS011;5467;59.334;13.512;2022-09-17T05:45:23;0.30;;;0.30;;
10827;SDS011;5467;59.334;13.512;2022-09-17T05:47:53;0.30;;;0.30;;
10827;SDS011;5467;59.334;13.512;2022-09-17T05:50:21;0.40;;;0.40;;
10827;SDS011;5467;59.334;13.512;2022-09-17T05:52:48;0.40;;;0.40;;
10827;SDS011;5467;59.334;13.512;2022-09-17T05:55:17;0.40;;;0.40;;
10827;SDS011;5467;59.334;13.512;2022-09-17T05:57:44;0.40;;;0.40;;
10827;SDS011;5467;59.334;13.512;2022-09-17T06:00:12;0.40;;;0.40;;
10827;SDS011;5467;59.334;13.512;2022-09-17T06:02:39;0.30;;;0.30;;
10827;SDS011;5467;59.334;13.512;2022-09-17T06:05:07;0.40;;;0.40;;
10827;SDS011;5467;59.334;13.512;2022-09-17T06:07:34;0.40;;;0.40;;
10827;SDS011;5467;59.334;13.512;2022-09-17T06:10:02;0.40;;;0.40;;
10827;SDS011;5467;59.334;13.512;2022-09-17T06:12:31;0.30;;;0.30;;
10827;SDS011;5467;59.334;13.512;2022-09-17T06:14:59;0.40;;;0.40;;
10827;SDS011;5467;59.334;13.512;2022-09-17T06:17:26;0.30;;;0.30;;
10827;SDS011;5467;59.334;13.512;2022-09-17T06:19:53;0.40;;;0.40;;
10827;SDS011;5467;59.334;13.512;2022-09-17T06:22:20;0.30;;;0.30;;
10827;SDS011;5467;59.334;13.512;2022-09-17T06:24:47;0.60;;;0.60;;
10827;SDS011;5467;59.334;13.512;2022-09-17T06:27:14;0.30;;;0.30;;
10827;SDS011;5467;59.334;13.512;2022-09-17T06:29:43;0.40;;;0.40;;
10827;SDS011;5467;59.334;13.512;2022-09-17T06:32:10;0.40;;;0.40;;
10827;SDS011;5467;59.334;13.512;2022-09-17T06:34:39;0.30;;;0.30;;
10827;SDS011;5467;59.334;13.512;2022-09-17T06:37:06;0.40;;;0.40;;
10827;SDS011;5467;59.334;13.512;2022-09-17T06:39:33;0.30;;;0.30;;
10827;SDS011;5467;59.334;13.512;2022-09-17T06:42:00;0.40;;;0.40;;
10827;SDS011;5467;59.334;13.512;2022-09-17T06:44:27;0.40;;;0.40;;
10827;SDS011;5467;59.334;13.512;2022-09-17T06:46:56;0.30;;;0.30;;
10827;SDS011;5467;59.334;13.512;2022-09-17T06:49:24;0.30;;;0.30;;
10827;SDS011;5467;59.334;13.512;2022-09-17T06:51:51;0.40;;;0.40;;
10827;SDS011;5467;59.334;13.512;2022-09-17T06:54:18;0.30;;;0.30;;
10827;SDS011;5467;59.334;13.512;2022-09-17T06:56:45;0.30;;;0.30;;
10827;SDS011;5467;59.334;13.512;2022-09-17T06:59:12;0.40;;;0.40;;
10827;SDS011;5467;59.334;13.512;2022-09-17T07:01:39;0.40;;;0.40;;
10827;SDS011;5467;59.334;13.512;2022-09-17T07:04:08;0.40;;;0.40;;
10827;SDS011;5467;59.334;13.512;2022-09-17T07:06:35;0.40;;;0.40;;
10827;SDS011;5467;59.334;13.512;2022-09-17T07:09:02;0.40;;;0.40;;
10827;SDS011;5467;59.334;13.512;2022-09-17T07:11:29;0.57;;;0.57;;
10827;SDS011;5467;59.334;13.512;2022-09-17T07:13:56;0.40;;;0.40;;
10827;SDS011;5467;59.334;13.512;2022-09-17T07:16:23;0.40;;;0.40;;
10827;SDS011;5467;59.334;13.512;2022-09-17T07:18:50;0.40;;;0.40;;
10827;SDS011;5467;59.334;13.512;2022-09-17T07:21:19;0.40;;;0.40;;
10827;SDS011;5467;59.334;13.512;2022-09-17T07:23:46;0.40;;;0.40;;
10827;SDS011;5467;59.334;13.512;2022-09-17T07:26:13;0.43;;;0.43;;
10827;SDS011;5467;59.334;13.512;2022-09-17T07:28:41;0.40;;;0.40;;
10827;SDS011;5467;59.334;13.512;2022-09-17T07:31:09;0.50;;;0.50;;
10827;SDS011;5467;59.334;13.512;2022-09-17T07:33:37;0.50;;;0.50;;
10827;SDS011;5467;59.334;13.512;2022-09-17T07:36:05;0.40;;;0.40;;
10827;SDS011;5467;59.334;13.512;2022-09-17T07:38:35;0.50;;;0.50;;
10827;SDS011;5467;59.334;13.512;2022-09-17T07:41:04;0.40;;;0.40;;
10827;SDS011;5467;59.334;13.512;2022-09-17T07:43:33;0.40;;;0.40;;
10827;SDS011;5467;59.334;13.512;2022-09-17T07:46:02;0.30;;;0.30;;
10827;SDS011;5467;59.334;13.512;2022-09-17T07:48:30;0.40;;;0.40;;
10827;SDS011;5467;59.334;13.512;2022-09-17T07:50:57;0.50;;;0.50;;
10827;SDS011;5467;59.334;13.512;2022-09-17T07:53:24;0.50;;;0.50;;
10827;SDS011;5467;59.334;13.512;2022-09-17T07:55:54;0.50;;;0.50;;
10827;SDS011;5467;59.334;13.512;2022-09-17T07:58:22;0.50;;;0.50;;
10827;SDS011;5467;59.334;13.512;2022-09-17T08:00:50;0.50;;;0.50;;
10827;SDS011;5467;59.334;13.512;2022-09-17T08:03:17;0.60;;;0.60;;
10827;SDS011;5467;59.334;13.512;2022-09-17T08:05:43;0.60;;;0.60;;
10827;SDS011;5467;59.334;13.512;2022-09-17T08:08:12;0.60;;;0.60;;
10827;SDS011;5467;59.334;13.512;2022-09-17T08:10:39;0.60;;;0.60;;
10827;SDS011;5467;59.334;13.512;2022-09-17T08:13:07;0.60;;;0.60;;
10827;SDS011;5467;59.334;13.512;2022-09-17T08:15:34;0.60;;;0.60;;
10827;SDS011;5467;59.334;13.512;2022-09-17T08:18:01;0.60;;;0.60;;
10827;SDS011;5467;59.334;13.512;2022-09-17T08:20:28;0.60;;;0.60;;
10827;SDS011;5467;59.334;13.512;2022-09-17T08:22:58;0.70;;;0.70;;
10827;SDS011;5467;59.334;13.512;2022-09-17T08:25:25;0.70;;;0.70;;
10827;SDS011;5467;59.334;13.512;2022-09-17T08:27:53;0.60;;;0.60;;
10827;SDS011;5467;59.334;13.512;2022-09-17T08:30:22;0.60;;;0.60;;
10827;SDS011;5467;59.334;13.512;2022-09-17T08:32:49;0.70;;;0.70;;
10827;SDS011;5467;59.334;13.512;2022-09-17T08:35:16;0.60;;;0.60;;
10827;SDS011;5467;59.334;13.512;2022-09-17T08:37:43;0.70;;;0.70;;
10827;SDS011;5467;59.334;13.512;2022-09-17T08:40:12;0.60;;;0.60;;
10827;SDS011;5467;59.334;13.512;2022-09-17T08:42:48;0.67;;;0.67;;
10827;SDS011;5467;59.334;13.512;2022-09-17T08:45:24;0.60;;;0.60;;
10827;SDS011;5467;59.334;13.512;2022-09-17T08:47:52;0.60;;;0.60;;
10827;SDS011;5467;59.334;13.512;2022-09-17T08:50:26;0.80;;;0.80;;
10827;SDS011;5467;59.334;13.512;2022-09-17T08:55:55;0.70;;;0.70;;
10827;SDS011;5467;59.334;13.512;2022-09-17T08:58:36;0.70;;;0.70;;
10827;SDS011;5467;59.334;13.512;2022-09-17T09:01:26;0.70;;;0.70;;
10827;SDS011;5467;59.334;13.512;2022-09-17T09:06:58;0.60;;;0.60;;
10827;SDS011;5467;59.334;13.512;2022-09-17T09:09:30;0.70;;;0.70;;
10827;SDS011;5467;59.334;13.512;2022-09-17T09:12:03;0.70;;;0.70;;
10827;SDS011;5467;59.334;13.512;2022-09-17T09:14:38;0.60;;;0.60;;
10827;SDS011;5467;59.334;13.512;2022-09-17T09:17:11;0.70;;;0.70;;
10827;SDS011;5467;59.334;13.512;2022-09-17T09:19:40;0.60;;;0.60;;
10827;SDS011;5467;59.334;13.512;2022-09-17T09:22:13;0.73;;;0.73;;
10827;SDS011;5467;59.334;13.512;2022-09-17T09:24:55;0.70;;;0.70;;
10827;SDS011;5467;59.334;13.512;2022-09-17T09:27:31;0.77;;;0.77;;
10827;SDS011;5467;59.334;13.512;2022-09-17T09:30:06;0.70;;;0.70;;
10827;SDS011;5467;59.334;13.512;2022-09-17T09:32:40;0.70;;;0.70;;
10827;SDS011;5467;59.334;13.512;2022-09-17T09:35:16;0.70;;;0.70;;
10827;SDS011;5467;59.334;13.512;2022-09-17T09:37:46;0.70;;;0.70;;
10827;SDS011;5467;59.334;13.512;2022-09-17T09:40:25;0.70;;;0.70;;
10827;SDS011;5467;59.334;13.512;2022-09-17T09:42:58;0.60;;;0.60;;
10827;SDS011;5467;59.334;13.512;2022-09-17T09:45:32;0.70;;;0.70;;
10827;SDS011;5467;59.334;13.512;2022-09-17T09:48:11;0.70;;;0.70;;
10827;SDS011;5467;59.334;13.512;2022-09-17T09:50:54;0.70;;;0.70;;
10827;SDS011;5467;59.334;13.512;2022-09-17T09:53:39;0.60;;;0.60;;
10827;SDS011;5467;59.334;13.512;2022-09-17T09:56:20;0.50;;;0.50;;
10827;SDS011;5467;59.334;13.512;2022-09-17T09:59:05;0.60;;;0.60;;
10827;SDS011;5467;59.334;13.512;2022-09-17T10:01:32;0.60;;;0.60;;
10827;SDS011;5467;59.334;13.512;2022-09-17T10:04:07;0.60;;;0.60;;
10827;SDS011;5467;59.334;13.512;2022-09-17T10:06:42;0.60;;;0.60;;
10827;SDS011;5467;59.334;13.512;2022-09-17T10:09:09;0.70;;;0.70;;
10827;SDS011;5467;59.334;13.512;2022-09-17T10:11:39;0.70;;;0.70;;
10827;SDS011;5467;59.334;13.512;2022-09-17T10:14:13;0.60;;;0.60;;
10827;SDS011;5467;59.334;13.512;2022-09-17T10:16:46;0.60;;;0.60;;
10827;SDS011;5467;59.334;13.512;2022-09-17T10:19:17;0.60;;;0.60;;
10827;SDS011;5467;59.334;13.512;2022-09-17T10:21:49;0.60;;;0.60;;
10827;SDS011;5467;59.334;13.512;2022-09-17T10:24:20;0.60;;;0.60;;
10827;SDS011;5467;59.334;13.512;2022-09-17T10:26:49;0.60;;;0.60;;
10827;SDS011;5467;59.334;13.512;2022-09-17T10:29:17;0.60;;;0.60;;
10827;SDS011;5467;59.334;13.512;2022-09-17T10:31:46;0.60;;;0.60;;
10827;SDS011;5467;59.334;13.512;2022-09-17T10:34:22;0.60;;;0.60;;
10827;SDS011;5467;59.334;13.512;2022-09-17T10:36:51;0.60;;;0.60;;
10827;SDS011;5467;59.334;13.512;2022-09-17T10:39:29;0.67;;;0.67;;
10827;SDS011;5467;59.334;13.512;2022-09-17T10:41:59;0.60;;;0.60;;
10827;SDS011;5467;59.334;13.512;2022-09-17T10:44:27;0.80;;;0.80;;
10827;SDS011;5467;59.334;13.512;2022-09-17T10:47:00;0.60;;;0.60;;
10827;SDS011;5467;59.334;13.512;2022-09-17T10:49:38;0.60;;;0.60;;
10827;SDS011;5467;59.334;13.512;2022-09-17T10:52:09;0.70;;;0.70;;
10827;SDS011;5467;59.334;13.512;2022-09-17T10:57:45;0.60;;;0.60;;
10827;SDS011;5467;59.334;13.512;2022-09-17T11:00:28;0.60;;;0.60;;
10827;SDS011;5467;59.334;13.512;2022-09-17T11:03:16;0.60;;;0.60;;
10827;SDS011;5467;59.334;13.512;2022-09-17T11:06:22;0.60;;;0.60;;
10827;SDS011;5467;59.334;13.512;2022-09-17T11:09:01;0.70;;;0.70;;
10827;SDS011;5467;59.334;13.512;2022-09-17T11:11:42;0.60;;;0.60;;
10827;SDS011;5467;59.334;13.512;2022-09-17T11:14:22;0.60;;;0.60;;
10827;SDS011;5467;59.334;13.512;2022-09-17T11:17:06;0.60;;;0.60;;
10827;SDS011;5467;59.334;13.512;2022-09-17T11:19:42;0.60;;;0.60;;
10827;SDS011;5467;59.334;13.512;2022-09-17T11:22:17;0.60;;;0.60;;
10827;SDS011;5467;59.334;13.512;2022-09-17T11:24:57;0.70;;;0.70;;
10827;SDS011;5467;59.334;13.512;2022-09-17T11:27:42;0.50;;;0.50;;
10827;SDS011;5467;59.334;13.512;2022-09-17T11:30:21;0.60;;;0.60;;
10827;SDS011;5467;59.334;13.512;2022-09-17T11:32:55;0.60;;;0.60;;
10827;SDS011;5467;59.334;13.512;2022-09-17T11:35:37;0.60;;;0.60;;
10827;SDS011;5467;59.334;13.512;2022-09-17T11:38:13;0.60;;;0.60;;
10827;SDS011;5467;59.334;13.512;2022-09-17T11:40:46;0.60;;;0.60;;
10827;SDS011;5467;59.334;13.512;2022-09-17T11:43:18;0.60;;;0.60;;
10827;SDS011;5467;59.334;13.512;2022-09-17T11:45:54;0.60;;;0.60;;
10827;SDS011;5467;59.334;13.512;2022-09-17T11:48:26;0.60;;;0.60;;
10827;SDS011;5467;59.334;13.512;2022-09-17T11:51:02;0.60;;;0.60;;
10827;SDS011;5467;59.334;13.512;2022-09-17T11:53:36;0.60;;;0.60;;
10827;SDS011;5467;59.334;13.512;2022-09-17T11:56:09;0.70;;;0.70;;
10827;SDS011;5467;59.334;13.512;2022-09-17T11:58:43;0.50;;;0.50;;
10827;SDS011;5467;59.334;13.512;2022-09-17T12:01:15;0.60;;;0.60;;
10827;SDS011;5467;59.334;13.512;2022-09-17T12:03:50;0.60;;;0.60;;
10827;SDS011;5467;59.334;13.512;2022-09-17T12:06:26;0.60;;;0.60;;
10827;SDS011;5467;59.334;13.512;2022-09-17T12:09:02;0.60;;;0.60;;
10827;SDS011;5467;59.334;13.512;2022-09-17T12:11:37;0.60;;;0.60;;
10827;SDS011;5467;59.334;13.512;2022-09-17T12:14:08;0.60;;;0.60;;
10827;SDS011;5467;59.334;13.512;2022-09-17T12:16:43;0.60;;;0.60;;
10827;SDS011;5467;59.334;13.512;2022-09-17T12:19:16;0.60;;;0.60;;
10827;SDS011;5467;59.334;13.512;2022-09-17T12:21:47;0.60;;;0.60;;
10827;SDS011;5467;59.334;13.512;2022-09-17T12:24:20;0.60;;;0.60;;
10827;SDS011;5467;59.334;13.512;2022-09-17T12:27:00;0.60;;;0.60;;
10827;SDS011;5467;59.334;13.512;2022-09-17T12:32:43;0.60;;;0.60;;
10827;SDS011;5467;59.334;13.512;2022-09-17T12:35:27;0.60;;;0.60;;
10827;SDS011;5467;59.334;13.512;2022-09-17T12:38:09;0.60;;;0.60;;
10827;SDS011;5467;59.334;13.512;2022-09-17T12:40:50;0.60;;;0.60;;
10827;SDS011;5467;59.334;13.512;2022-09-17T12:43:31;0.50;;;0.50;;
10827;SDS011;5467;59.334;13.512;2022-09-17T12:46:27;0.60;;;0.60;;
10827;SDS011;5467;59.334;13.512;2022-09-17T12:49:26;0.60;;;0.60;;
10827;SDS011;5467;59.334;13.512;2022-09-17T12:52:04;0.57;;;0.57;;
10827;SDS011;5467;59.334;13.512;2022-09-17T12:54:52;0.50;;;0.50;;
10827;SDS011;5467;59.334;13.512;2022-09-17T12:57:37;0.60;;;0.60;;
10827;SDS011;5467;59.334;13.512;2022-09-17T13:00:15;0.60;;;0.60;;
10827;SDS011;5467;59.334;13.512;2022-09-17T13:02:43;0.60;;;0.60;;
10827;SDS011;5467;59.334;13.512;2022-09-17T13:05:33;0.60;;;0.60;;
10827;SDS011;5467;59.334;13.512;2022-09-17T13:08:39;0.70;;;0.70;;
10827;SDS011;5467;59.334;13.512;2022-09-17T13:11:38;0.60;;;0.60;;
10827;SDS011;5467;59.334;13.512;2022-09-17T13:14:18;0.60;;;0.60;;
10827;SDS011;5467;59.334;13.512;2022-09-17T13:16:55;0.60;;;0.60;;
10827;SDS011;5467;59.334;13.512;2022-09-17T13:19:31;0.60;;;0.60;;
10827;SDS011;5467;59.334;13.512;2022-09-17T13:22:03;0.60;;;0.60;;
10827;SDS011;5467;59.334;13.512;2022-09-17T13:24:34;0.60;;;0.60;;
10827;SDS011;5467;59.334;13.512;2022-09-17T13:27:02;0.60;;;0.60;;
10827;SDS011;5467;59.334;13.512;2022-09-17T13:32:41;0.60;;;0.60;;
10827;SDS011;5467;59.334;13.512;2022-09-17T13:38:13;0.60;;;0.60;;
10827;SDS011;5467;59.334;13.512;2022-09-17T13:40:42;0.50;;;0.50;;
10827;SDS011;5467;59.334;13.512;2022-09-17T13:43:09;0.53;;;0.53;;
10827;SDS011;5467;59.334;13.512;2022-09-17T13:48:36;0.60;;;0.60;;
10827;SDS011;5467;59.334;13.512;2022-09-17T13:54:13;0.60;;;0.60;;
10827;SDS011;5467;59.334;13.512;2022-09-17T13:56:42;0.60;;;0.60;;
10827;SDS011;5467;59.334;13.512;2022-09-17T13:59:11;0.60;;;0.60;;
10827;SDS011;5467;59.334;13.512;2022-09-17T14:01:56;0.60;;;0.60;;
10827;SDS011;5467;59.334;13.512;2022-09-17T14:04:32;0.60;;;0.60;;
10827;SDS011;5467;59.334;13.512;2022-09-17T14:07:32;0.60;;;0.60;;
10827;SDS011;5467;59.334;13.512;2022-09-17T14:10:02;0.50;;;0.50;;
10827;SDS011;5467;59.334;13.512;2022-09-17T14:15:56;0.60;;;0.60;;
10827;SDS011;5467;59.334;13.512;2022-09-17T14:18:34;0.60;;;0.60;;
10827;SDS011;5467;59.334;13.512;2022-09-17T14:21:14;0.60;;;0.60;;
10827;SDS011;5467;59.334;13.512;2022-09-17T14:23:52;0.60;;;0.60;;
10827;SDS011;5467;59.334;13.512;2022-09-17T14:26:24;0.60;;;0.60;;
10827;SDS011;5467;59.334;13.512;2022-09-17T14:29:17;1.47;;;0.63;;
10827;SDS011;5467;59.334;13.512;2022-09-17T14:31:54;0.60;;;0.60;;
10827;SDS011;5467;59.334;13.512;2022-09-17T14:34:23;0.60;;;0.60;;
10827;SDS011;5467;59.334;13.512;2022-09-17T14:36:53;0.50;;;0.50;;
10827;SDS011;5467;59.334;13.512;2022-09-17T14:39:22;0.60;;;0.60;;
10827;SDS011;5467;59.334;13.512;2022-09-17T14:41:51;0.60;;;0.60;;
10827;SDS011;5467;59.334;13.512;2022-09-17T14:44:21;0.60;;;0.60;;
10827;SDS011;5467;59.334;13.512;2022-09-17T14:46:53;0.60;;;0.60;;
10827;SDS011;5467;59.334;13.512;2022-09-17T14:49:25;0.50;;;0.50;;
10827;SDS011;5467;59.334;13.512;2022-09-17T14:51:53;0.60;;;0.60;;
10827;SDS011;5467;59.334;13.512;2022-09-17T14:54:22;0.50;;;0.50;;
10827;SDS011;5467;59.334;13.512;2022-09-17T14:56:58;0.53;;;0.53;;
10827;SDS011;5467;59.334;13.512;2022-09-17T14:59:32;0.60;;;0.60;;
10827;SDS011;5467;59.334;13.512;2022-09-17T15:02:19;0.60;;;0.60;;
10827;SDS011;5467;59.334;13.512;2022-09-17T15:04:53;0.60;;;0.60;;
10827;SDS011;5467;59.334;13.512;2022-09-17T15:07:21;0.60;;;0.60;;
10827;SDS011;5467;59.334;13.512;2022-09-17T15:09:48;0.60;;;0.60;;
10827;SDS011;5467;59.334;13.512;2022-09-17T15:12:19;0.63;;;0.63;;
10827;SDS011;5467;59.334;13.512;2022-09-17T15:14:49;0.60;;;0.60;;
10827;SDS011;5467;59.334;13.512;2022-09-17T15:17:19;0.60;;;0.60;;
10827;SDS011;5467;59.334;13.512;2022-09-17T15:19:47;0.60;;;0.60;;
10827;SDS011;5467;59.334;13.512;2022-09-17T15:22:19;0.60;;;0.60;;
10827;SDS011;5467;59.334;13.512;2022-09-17T15:24:49;0.60;;;0.60;;
10827;SDS011;5467;59.334;13.512;2022-09-17T15:27:21;0.50;;;0.50;;
10827;SDS011;5467;59.334;13.512;2022-09-17T15:29:50;0.50;;;0.50;;
10827;SDS011;5467;59.334;13.512;2022-09-17T15:32:22;0.50;;;0.50;;
10827;SDS011;5467;59.334;13.512;2022-09-17T15:35:08;0.50;;;0.50;;
10827;SDS011;5467;59.334;13.512;2022-09-17T15:37:54;0.60;;;0.60;;
10827;SDS011;5467;59.334;13.512;2022-09-17T15:40:26;0.60;;;0.60;;
10827;SDS011;5467;59.334;13.512;2022-09-17T15:42:59;0.53;;;0.53;;
10827;SDS011;5467;59.334;13.512;2022-09-17T15:45:30;0.50;;;0.50;;
10827;SDS011;5467;59.334;13.512;2022-09-17T15:48:01;0.60;;;0.60;;